Time,TemperatureF,DewpointF,PressureIn,WindDirection,WindDirectionDegrees,WindSpeedMPH,WindSpeedGustMPH,Humidity,HourlyPrecipIn,Conditions,Clouds,dailyrainin,SoftwareType,DateUTC
2013-08-30 04:00:00,48.0,34.0,-100.00,North,-999,-999.0,-999.0,57,-99.99,,,0.00,,2013-08-30 10:00:00,
2013-08-30 04:53:00,48.0,34.0,-100.00,North,-999,-999.0,-999.0,57,-99.99,,,0.00,,2013-08-30 10:53:00,
2013-08-30 05:00:00,49.0,34.0,-100.00,North,-999,-999.0,-999.0,57,-99.99,,,0.00,,2013-08-30 11:00:00,
2013-08-30 05:52:00,49.0,34.0,-100.00,North,-999,-999.0,-999.0,57,-99.99,,,0.00,,2013-08-30 11:52:00,
2013-08-30 08:00:00,51.0,37.0,-100.00,North,-999,-999.0,-999.0,57,-99.99,,,0.00,,2013-08-30 14:00:00,
2013-08-30 08:52:00,51.0,37.0,-100.00,North,-999,-999.0,-999.0,57,-99.99,,,0.00,,2013-08-30 14:52:00,
2013-08-30 09:00:00,62.0,46.0,-100.00,North,-999,-999.0,-999.0,57,-99.99,,,-99.99,,2013-08-30 15:00:00,
2013-08-30 09:54:00,62.0,46.0,-100.00,North,-999,-999.0,-999.0,57,-99.99,,,-99.99,,2013-08-30 15:54:00,
2013-08-30 10:00:00,64.0,48.0,-100.00,North,-999,-999.0,-999.0,57,-99.99,,,0.00,,2013-08-30 16:00:00,
2013-08-30 10:53:00,64.0,48.0,-100.00,North,-999,-999.0,-999.0,57,-99.99,,,0.00,,2013-08-30 16:53:00,
2013-08-30 11:00:00,71.0,55.0,-100.00,North,-999,-999.0,-999.0,57,-99.99,,,-99.99,,2013-08-30 17:00:00,
2013-08-30 11:53:00,71.0,55.0,-100.00,North,-999,-999.0,-999.0,57,-99.99,,,-99.99,,2013-08-30 17:53:00,
2013-08-30 12:00:00,69.0,52.0,-100.00,North,-999,-999.0,-999.0,56,-99.99,,,0.00,,2013-08-30 18:00:00,
2013-08-30 12:52:00,69.0,52.0,-100.00,North,-999,-999.0,-999.0,56,-99.99,,,0.00,,2013-08-30 18:52:00,
2013-08-30 13:00:00,69.0,52.0,-100.00,North,-999,-999.0,-999.0,56,-99.99,,,0.00,,2013-08-30 19:00:00,
2013-08-30 13:53:00,69.0,52.0,-100.00,North,-999,-999.0,-999.0,56,-99.99,,,0.00,,2013-08-30 19:53:00,
2013-08-30 14:00:00,59.0,43.0,-100.00,North,-999,-999.0,-999.0,57,-99.99,,,0.00,,2013-08-30 20:00:00,
2013-08-30 14:52:00,59.0,43.0,-100.00,North,-999,-999.0,-999.0,57,-99.99,,,0.00,,2013-08-30 20:52:00,
2013-08-30 15:00:00,55.0,40.0,-100.00,North,-999,-999.0,-999.0,57,-99.99,,,0.01,,2013-08-30 21:00:00,
2013-08-30 15:55:00,55.0,40.0,-100.00,North,-999,-999.0,-999.0,57,-99.99,,,0.01,,2013-08-30 21:55:00,
2013-08-30 16:00:00,59.0,44.0,-100.00,North,-999,-999.0,-999.0,57,-99.99,,,0.01,,2013-08-30 22:00:00,
2013-08-30 16:54:00,59.0,44.0,-100.00,North,-999,-999.0,-999.0,57,-99.99,,,0.01,,2013-08-30 22:54:00,
2013-08-30 17:53:00,64.0,48.0,-100.00,North,-999,-999.0,-999.0,57,-99.99,,,0.00,,2013-08-30 23:53:00,
2013-08-30 18:00:00,61.0,46.0,-100.00,North,-999,-999.0,-999.0,57,-99.99,,,0.00,,2013-08-31 00:00:00,
2013-08-30 18:52:00,61.0,46.0,-100.00,North,-999,-999.0,-999.0,57,-99.99,,,0.00,,2013-08-31 00:52:00,
2013-08-30 19:00:00,59.0,43.0,-100.00,North,-999,-999.0,-999.0,57,-99.99,,,0.00,,2013-08-31 01:00:00,
2013-08-30 19:52:00,59.0,43.0,-100.00,North,-999,-999.0,-999.0,57,-99.99,,,0.00,,2013-08-31 01:52:00,
2013-08-30 21:00:00,52.0,38.0,-100.00,North,-999,-999.0,-999.0,58,-99.99,,,0.00,,2013-08-31 03:00:00,
2013-08-30 21:54:00,52.0,38.0,-100.00,North,-999,-999.0,-999.0,58,-99.99,,,0.00,,2013-08-31 03:54:00,
2013-08-30 22:00:00,51.0,37.0,-100.00,North,-999,-999.0,-999.0,58,-99.99,,,0.00,,2013-08-31 04:00:00,
2013-08-30 22:54:00,51.0,37.0,-100.00,North,-999,-999.0,-999.0,58,-99.99,,,0.00,,2013-08-31 04:54:00,
2013-08-30 23:00:00,50.0,35.0,-100.00,North,-999,-999.0,-999.0,58,-99.99,,,0.00,,2013-08-31 05:00:00,
2013-08-30 23:53:00,50.0,35.0,-100.00,North,-999,-999.0,-999.0,58,-99.99,,,0.00,,2013-08-31 05:53:00,